sensor_id;sensor_type;location;lat;lon;timestamp;pressure;altitude;pressure_sealevel;temperature
60242;BMP280;46103;52.076;113.488;2022-08-02T00:01:42;92515.53;;;19.57
60242;BMP280;46103;52.076;113.488;2022-08-02T00:04:46;92503.84;;;19.41
60242;BMP280;46103;52.076;113.488;2022-08-02T00:07:50;92508.59;;;19.56
60242;BMP280;46103;52.076;113.488;2022-08-02T00:10:53;92506.50;;;19.55
60242;BMP280;46103;52.076;113.488;2022-08-02T00:13:58;92495.53;;;19.57
60242;BMP280;46103;52.076;113.488;2022-08-02T00:17:03;92498.97;;;19.73
60242;BMP280;46103;52.076;113.488;2022-08-02T00:20:07;92510.34;;;19.81
60242;BMP280;46103;52.076;113.488;2022-08-02T00:23:11;92522.03;;;19.98
60242;BMP280;46103;52.076;113.488;2022-08-02T00:26:15;92507.06;;;20.03
60242;BMP280;46103;52.076;113.488;2022-08-02T00:29:19;92492.28;;;19.96
60242;BMP280;46103;52.076;113.488;2022-08-02T00:32:23;92493.59;;;20.11
60242;BMP280;46103;52.076;113.488;2022-08-02T00:35:26;92451.19;;;20.02
60242;BMP280;46103;52.076;113.488;2022-08-02T00:38:30;92464.97;;;20.20
60242;BMP280;46103;52.076;113.488;2022-08-02T00:41:47;92489.28;;;20.61
60242;BMP280;46103;52.076;113.488;2022-08-02T00:44:52;92486.09;;;20.86
60242;BMP280;46103;52.076;113.488;2022-08-02T00:47:56;92480.78;;;20.93
60242;BMP280;46103;52.076;113.488;2022-08-02T00:51:00;92485.69;;;20.94
60242;BMP280;46103;52.076;113.488;2022-08-02T00:54:05;92482.34;;;20.98
60242;BMP280;46103;52.076;113.488;2022-08-02T00:57:09;92487.28;;;21.01
60242;BMP280;46103;52.076;113.488;2022-08-02T01:00:13;92486.66;;;21.22
60242;BMP280;46103;52.076;113.488;2022-08-02T01:03:17;92497.69;;;21.20
60242;BMP280;46103;52.076;113.488;2022-08-02T01:06:21;92487.81;;;21.35
60242;BMP280;46103;52.076;113.488;2022-08-02T01:09:26;92490.66;;;21.37
60242;BMP280;46103;52.076;113.488;2022-08-02T01:12:29;92484.34;;;21.35
60242;BMP280;46103;52.076;113.488;2022-08-02T01:15:42;92472.75;;;21.60
60242;BMP280;46103;52.076;113.488;2022-08-02T01:18:53;92466.84;;;21.70
60242;BMP280;46103;52.076;113.488;2022-08-02T01:26:10;92469.94;;;21.80
60242;BMP280;46103;52.076;113.488;2022-08-02T01:29:24;92465.84;;;21.81
60242;BMP280;46103;52.076;113.488;2022-08-02T01:32:36;92473.94;;;21.97
60242;BMP280;46103;52.076;113.488;2022-08-02T01:35:42;92471.09;;;22.16
60242;BMP280;46103;52.076;113.488;2022-08-02T01:38:53;92457.72;;;22.33
60242;BMP280;46103;52.076;113.488;2022-08-02T01:41:58;92476.84;;;22.46
60242;BMP280;46103;52.076;113.488;2022-08-02T01:45:03;92473.13;;;22.62
60242;BMP280;46103;52.076;113.488;2022-08-02T01:48:09;92472.28;;;22.81
60242;BMP280;46103;52.076;113.488;2022-08-02T01:51:17;92460.13;;;22.92
60242;BMP280;46103;52.076;113.488;2022-08-02T01:54:26;92463.69;;;23.20
60242;BMP280;46103;52.076;113.488;2022-08-02T01:57:56;92480.97;;;23.45
60242;BMP280;46103;52.076;113.488;2022-08-02T02:01:01;92474.31;;;23.56
60242;BMP280;46103;52.076;113.488;2022-08-02T02:04:07;92476.47;;;23.59
60242;BMP280;46103;52.076;113.488;2022-08-02T02:07:12;92482.50;;;23.78
60242;BMP280;46103;52.076;113.488;2022-08-02T02:10:23;92482.16;;;23.93
60242;BMP280;46103;52.076;113.488;2022-08-02T02:13:28;92477.75;;;24.12
60242;BMP280;46103;52.076;113.488;2022-08-02T02:16:35;92477.22;;;24.20
60242;BMP280;46103;52.076;113.488;2022-08-02T02:19:41;92483.16;;;24.38
60242;BMP280;46103;52.076;113.488;2022-08-02T02:22:46;92471.81;;;24.60
60242;BMP280;46103;52.076;113.488;2022-08-02T02:25:52;92441.19;;;24.56
60242;BMP280;46103;52.076;113.488;2022-08-02T02:29:01;92470.31;;;24.87
60242;BMP280;46103;52.076;113.488;2022-08-02T02:32:06;92456.16;;;25.11
60242;BMP280;46103;52.076;113.488;2022-08-02T02:35:11;92465.69;;;25.38
60242;BMP280;46103;52.076;113.488;2022-08-02T02:38:22;92455.47;;;25.50
60242;BMP280;46103;52.076;113.488;2022-08-02T02:41:26;92452.13;;;25.58
60242;BMP280;46103;52.076;113.488;2022-08-02T02:44:31;92452.41;;;25.76
60242;BMP280;46103;52.076;113.488;2022-08-02T02:47:36;92442.94;;;25.93
60242;BMP280;46103;52.076;113.488;2022-08-02T02:50:43;92440.28;;;26.03
60242;BMP280;46103;52.076;113.488;2022-08-02T02:53:48;92442.69;;;26.25
60242;BMP280;46103;52.076;113.488;2022-08-02T02:57:12;92439.59;;;26.55
60242;BMP280;46103;52.076;113.488;2022-08-02T03:00:16;92432.75;;;26.64
60242;BMP280;46103;52.076;113.488;2022-08-02T03:03:43;92437.31;;;26.96
60242;BMP280;46103;52.076;113.488;2022-08-02T03:06:46;92443.72;;;27.10
60242;BMP280;46103;52.076;113.488;2022-08-02T03:09:50;92438.38;;;27.35
60242;BMP280;46103;52.076;113.488;2022-08-02T03:12:56;92444.88;;;27.58
60242;BMP280;46103;52.076;113.488;2022-08-02T03:16:01;92436.63;;;27.76
60242;BMP280;46103;52.076;113.488;2022-08-02T03:19:05;92429.69;;;27.81
60242;BMP280;46103;52.076;113.488;2022-08-02T03:22:09;92440.22;;;27.91
60242;BMP280;46103;52.076;113.488;2022-08-02T03:25:14;92435.94;;;27.79
60242;BMP280;46103;52.076;113.488;2022-08-02T03:28:18;92426.88;;;27.81
60242;BMP280;46103;52.076;113.488;2022-08-02T03:31:21;92408.03;;;27.81
60242;BMP280;46103;52.076;113.488;2022-08-02T03:34:26;92413.06;;;28.07
60242;BMP280;46103;52.076;113.488;2022-08-02T03:37:29;92418.06;;;28.23
60242;BMP280;46103;52.076;113.488;2022-08-02T03:40:35;92402.00;;;28.23
60242;BMP280;46103;52.076;113.488;2022-08-02T03:43:39;92416.03;;;28.44
60242;BMP280;46103;52.076;113.488;2022-08-02T03:46:43;92399.25;;;28.34
60242;BMP280;46103;52.076;113.488;2022-08-02T03:49:48;92415.47;;;28.72
60242;BMP280;46103;52.076;113.488;2022-08-02T03:52:52;92414.81;;;28.87
60242;BMP280;46103;52.076;113.488;2022-08-02T03:55:56;92402.19;;;28.86
60242;BMP280;46103;52.076;113.488;2022-08-02T03:59:09;92395.94;;;28.96
60242;BMP280;46103;52.076;113.488;2022-08-02T04:02:13;92403.69;;;29.40
60242;BMP280;46103;52.076;113.488;2022-08-02T04:05:17;92404.38;;;29.61
60242;BMP280;46103;52.076;113.488;2022-08-02T04:08:21;92400.88;;;29.64
60242;BMP280;46103;52.076;113.488;2022-08-02T04:11:38;92412.06;;;29.60
60242;BMP280;46103;52.076;113.488;2022-08-02T04:14:42;92412.09;;;29.54
60242;BMP280;46103;52.076;113.488;2022-08-02T04:17:58;92405.78;;;29.52
60242;BMP280;46103;52.076;113.488;2022-08-02T04:21:05;92386.88;;;29.42
60242;BMP280;46103;52.076;113.488;2022-08-02T04:24:11;92405.06;;;29.71
60242;BMP280;46103;52.076;113.488;2022-08-02T04:27:21;92386.16;;;29.64
60242;BMP280;46103;52.076;113.488;2022-08-02T04:30:46;92398.78;;;29.43
60242;BMP280;46103;52.076;113.488;2022-08-02T04:33:50;92388.25;;;29.25
60242;BMP280;46103;52.076;113.488;2022-08-02T04:36:54;92391.06;;;29.19
60242;BMP280;46103;52.076;113.488;2022-08-02T04:39:59;92397.38;;;29.15
60242;BMP280;46103;52.076;113.488;2022-08-02T04:43:03;92404.41;;;29.41
60242;BMP280;46103;52.076;113.488;2022-08-02T04:46:06;92414.88;;;29.46
60242;BMP280;46103;52.076;113.488;2022-08-02T04:49:11;92416.28;;;29.47
60242;BMP280;46103;52.076;113.488;2022-08-02T04:52:14;92419.06;;;29.43
60242;BMP280;46103;52.076;113.488;2022-08-02T04:55:18;92408.59;;;29.54
60242;BMP280;46103;52.076;113.488;2022-08-02T04:58:23;92409.28;;;29.70
60242;BMP280;46103;52.076;113.488;2022-08-02T05:01:43;92396.63;;;29.88
60242;BMP280;46103;52.076;113.488;2022-08-02T05:04:46;92409.19;;;30.09
60242;BMP280;46103;52.076;113.488;2022-08-02T05:07:50;92405.66;;;30.29
60242;BMP280;46103;52.076;113.488;2022-08-02T05:10:54;92407.03;;;30.36
60242;BMP280;46103;52.076;113.488;2022-08-02T05:13:58;92393.56;;;30.61
60242;BMP280;46103;52.076;113.488;2022-08-02T05:17:01;92407.56;;;30.73
60242;BMP280;46103;52.076;113.488;2022-08-02T05:20:05;92390.72;;;30.73
60242;BMP280;46103;52.076;113.488;2022-08-02T05:23:09;92403.19;;;31.02
60242;BMP280;46103;52.076;113.488;2022-08-02T05:26:13;92396.88;;;31.02
60242;BMP280;46103;52.076;113.488;2022-08-02T05:29:16;92408.72;;;31.14
60242;BMP280;46103;52.076;113.488;2022-08-02T05:32:20;92396.66;;;31.32
60242;BMP280;46103;52.076;113.488;2022-08-02T05:35:27;92397.72;;;31.70
60242;BMP280;46103;52.076;113.488;2022-08-02T05:38:30;92402.31;;;32.01
60242;BMP280;46103;52.076;113.488;2022-08-02T05:41:38;92403.31;;;32.37
60242;BMP280;46103;52.076;113.488;2022-08-02T05:44:43;92404.63;;;32.44
60242;BMP280;46103;52.076;113.488;2022-08-02T05:47:46;92390.50;;;32.48
60242;BMP280;46103;52.076;113.488;2022-08-02T05:50:54;92395.78;;;32.74
60242;BMP280;46103;52.076;113.488;2022-08-02T05:54:34;92396.72;;;33.08
60242;BMP280;46103;52.076;113.488;2022-08-02T05:58:03;92397.34;;;33.55
60242;BMP280;46103;52.076;113.488;2022-08-02T06:01:13;92389.84;;;34.18
60242;BMP280;46103;52.076;113.488;2022-08-02T06:04:25;92385.75;;;34.45
60242;BMP280;46103;52.076;113.488;2022-08-02T06:07:29;92382.78;;;34.52
60242;BMP280;46103;52.076;113.488;2022-08-02T06:10:35;92371.38;;;34.88
60242;BMP280;46103;52.076;113.488;2022-08-02T06:13:40;92372.16;;;35.16
60242;BMP280;46103;52.076;113.488;2022-08-02T06:16:44;92381.72;;;35.29
60242;BMP280;46103;52.076;113.488;2022-08-02T06:19:48;92369.94;;;35.18
60242;BMP280;46103;52.076;113.488;2022-08-02T06:22:55;92362.50;;;35.07
60242;BMP280;46103;52.076;113.488;2022-08-02T06:26:01;92357.72;;;34.99
60242;BMP280;46103;52.076;113.488;2022-08-02T06:29:06;92351.09;;;35.11
60242;BMP280;46103;52.076;113.488;2022-08-02T06:32:10;92345.25;;;35.46
60242;BMP280;46103;52.076;113.488;2022-08-02T06:35:14;92348.38;;;35.87
60242;BMP280;46103;52.076;113.488;2022-08-02T06:38:21;92350.69;;;36.30
60242;BMP280;46103;52.076;113.488;2022-08-02T06:41:30;92349.63;;;36.42
60242;BMP280;46103;52.076;113.488;2022-08-02T06:44:33;92350.09;;;36.50
60242;BMP280;46103;52.076;113.488;2022-08-02T06:47:53;92354.66;;;36.62
60242;BMP280;46103;52.076;113.488;2022-08-02T06:50:56;92355.06;;;37.16
60242;BMP280;46103;52.076;113.488;2022-08-02T06:54:00;92361.25;;;38.04
60242;BMP280;46103;52.076;113.488;2022-08-02T06:57:04;92362.22;;;38.71
60242;BMP280;46103;52.076;113.488;2022-08-02T07:00:08;92364.97;;;38.38
60242;BMP280;46103;52.076;113.488;2022-08-02T07:03:12;92348.22;;;38.29
60242;BMP280;46103;52.076;113.488;2022-08-02T07:06:16;92353.97;;;39.17
60242;BMP280;46103;52.076;113.488;2022-08-02T07:09:19;92348.81;;;40.03
60242;BMP280;46103;52.076;113.488;2022-08-02T07:12:24;92347.50;;;40.31
60242;BMP280;46103;52.076;113.488;2022-08-02T07:15:28;92363.09;;;40.64
60242;BMP280;46103;52.076;113.488;2022-08-02T07:18:33;92365.53;;;40.86
60242;BMP280;46103;52.076;113.488;2022-08-02T07:21:36;92369.69;;;41.46
60242;BMP280;46103;52.076;113.488;2022-08-02T07:25:00;92367.75;;;41.70
60242;BMP280;46103;52.076;113.488;2022-08-02T07:28:04;92379.59;;;42.16
60242;BMP280;46103;52.076;113.488;2022-08-02T07:31:08;92383.31;;;42.65
60242;BMP280;46103;52.076;113.488;2022-08-02T07:34:12;92375.84;;;43.21
60242;BMP280;46103;52.076;113.488;2022-08-02T07:37:16;92377.56;;;43.64
60242;BMP280;46103;52.076;113.488;2022-08-02T07:40:40;92385.56;;;43.85
60242;BMP280;46103;52.076;113.488;2022-08-02T07:43:44;92380.41;;;44.11
60242;BMP280;46103;52.076;113.488;2022-08-02T07:46:47;92370.41;;;43.99
60242;BMP280;46103;52.076;113.488;2022-08-02T07:49:51;92366.53;;;42.19
60242;BMP280;46103;52.076;113.488;2022-08-02T07:52:54;92365.75;;;39.90
60242;BMP280;46103;52.076;113.488;2022-08-02T07:55:59;92353.97;;;38.09
60242;BMP280;46103;52.076;113.488;2022-08-02T07:59:03;92344.03;;;37.29
60242;BMP280;46103;52.076;113.488;2022-08-02T08:02:07;92324.03;;;36.46
60242;BMP280;46103;52.076;113.488;2022-08-02T08:05:11;92327.06;;;35.90
60242;BMP280;46103;52.076;113.488;2022-08-02T08:08:15;92315.78;;;35.88
60242;BMP280;46103;52.076;113.488;2022-08-02T08:11:19;92326.84;;;36.69
60242;BMP280;46103;52.076;113.488;2022-08-02T08:14:23;92344.50;;;36.92
60242;BMP280;46103;52.076;113.488;2022-08-02T08:17:26;92333.91;;;35.99
60242;BMP280;46103;52.076;113.488;2022-08-02T08:20:30;92329.78;;;35.43
60242;BMP280;46103;52.076;113.488;2022-08-02T08:23:33;92325.91;;;35.27
60242;BMP280;46103;52.076;113.488;2022-08-02T08:26:37;92325.50;;;35.15
60242;BMP280;46103;52.076;113.488;2022-08-02T08:29:42;92319.78;;;34.90
60242;BMP280;46103;52.076;113.488;2022-08-02T08:32:45;92308.03;;;34.79
60242;BMP280;46103;52.076;113.488;2022-08-02T08:35:51;92314.28;;;34.84
60242;BMP280;46103;52.076;113.488;2022-08-02T08:38:54;92312.75;;;34.89
60242;BMP280;46103;52.076;113.488;2022-08-02T08:41:58;92304.28;;;34.89
60242;BMP280;46103;52.076;113.488;2022-08-02T08:45:03;92302.63;;;34.98
60242;BMP280;46103;52.076;113.488;2022-08-02T08:48:10;92297.81;;;35.21
60242;BMP280;46103;52.076;113.488;2022-08-02T08:51:37;92293.84;;;35.10
60242;BMP280;46103;52.076;113.488;2022-08-02T08:54:43;92304.06;;;34.97
60242;BMP280;46103;52.076;113.488;2022-08-02T08:57:50;92289.38;;;34.62
60242;BMP280;46103;52.076;113.488;2022-08-02T09:00:55;92294.84;;;34.39
60242;BMP280;46103;52.076;113.488;2022-08-02T09:03:59;92290.84;;;34.28
60242;BMP280;46103;52.076;113.488;2022-08-02T09:07:03;92285.03;;;34.36
60242;BMP280;46103;52.076;113.488;2022-08-02T09:10:32;92291.66;;;34.55
60242;BMP280;46103;52.076;113.488;2022-08-02T09:13:35;92290.50;;;35.04
60242;BMP280;46103;52.076;113.488;2022-08-02T09:16:47;92296.75;;;36.57
60242;BMP280;46103;52.076;113.488;2022-08-02T09:20:18;92298.91;;;38.56
60242;BMP280;46103;52.076;113.488;2022-08-02T09:23:22;92300.94;;;39.43
60242;BMP280;46103;52.076;113.488;2022-08-02T09:26:26;92300.78;;;38.61
60242;BMP280;46103;52.076;113.488;2022-08-02T09:29:30;92294.13;;;37.75
60242;BMP280;46103;52.076;113.488;2022-08-02T09:32:44;92290.34;;;36.58
60242;BMP280;46103;52.076;113.488;2022-08-02T09:35:48;92274.38;;;35.52
60242;BMP280;46103;52.076;113.488;2022-08-02T09:39:11;92249.00;;;34.96
60242;BMP280;46103;52.076;113.488;2022-08-02T09:42:16;92260.06;;;35.33
60242;BMP280;46103;52.076;113.488;2022-08-02T09:45:20;92259.00;;;35.45
60242;BMP280;46103;52.076;113.488;2022-08-02T09:48:24;92255.63;;;35.65
60242;BMP280;46103;52.076;113.488;2022-08-02T09:51:33;92248.19;;;36.03
60242;BMP280;46103;52.076;113.488;2022-08-02T09:54:38;92261.72;;;37.31
60242;BMP280;46103;52.076;113.488;2022-08-02T09:57:44;92253.63;;;38.68
60242;BMP280;46103;52.076;113.488;2022-08-02T10:00:56;92266.06;;;38.42
60242;BMP280;46103;52.076;113.488;2022-08-02T10:04:05;92263.09;;;40.09
60242;BMP280;46103;52.076;113.488;2022-08-02T10:07:09;92269.31;;;42.46
60242;BMP280;46103;52.076;113.488;2022-08-02T10:10:13;92263.41;;;43.45
60242;BMP280;46103;52.076;113.488;2022-08-02T10:13:17;92258.31;;;44.26
60242;BMP280;46103;52.076;113.488;2022-08-02T10:16:24;92246.25;;;44.79
60242;BMP280;46103;52.076;113.488;2022-08-02T10:19:27;92257.81;;;45.30
60242;BMP280;46103;52.076;113.488;2022-08-02T10:22:52;92258.56;;;46.20
60242;BMP280;46103;52.076;113.488;2022-08-02T10:25:56;92261.94;;;46.90
60242;BMP280;46103;52.076;113.488;2022-08-02T10:29:01;92261.06;;;46.92
60242;BMP280;46103;52.076;113.488;2022-08-02T10:32:31;92264.16;;;43.80
60242;BMP280;46103;52.076;113.488;2022-08-02T10:35:36;92252.50;;;40.22
60242;BMP280;46103;52.076;113.488;2022-08-02T10:38:42;92257.19;;;37.96
60242;BMP280;46103;52.076;113.488;2022-08-02T10:41:51;92265.84;;;36.26
60242;BMP280;46103;52.076;113.488;2022-08-02T10:45:08;92249.75;;;34.95
60242;BMP280;46103;52.076;113.488;2022-08-02T10:48:12;92250.72;;;34.23
60242;BMP280;46103;52.076;113.488;2022-08-02T10:51:19;92255.47;;;33.67
60242;BMP280;46103;52.076;113.488;2022-08-02T10:54:36;92254.97;;;33.19
60242;BMP280;46103;52.076;113.488;2022-08-02T10:57:40;92249.38;;;32.74
60242;BMP280;46103;52.076;113.488;2022-08-02T11:00:51;92247.66;;;32.51
60242;BMP280;46103;52.076;113.488;2022-08-02T11:03:58;92236.97;;;32.10
60242;BMP280;46103;52.076;113.488;2022-08-02T11:07:11;92241.03;;;31.68
60242;BMP280;46103;52.076;113.488;2022-08-02T11:10:37;92245.72;;;31.22
60242;BMP280;46103;52.076;113.488;2022-08-02T11:14:04;92244.63;;;30.93
60242;BMP280;46103;52.076;113.488;2022-08-02T11:17:13;92248.38;;;30.59
60242;BMP280;46103;52.076;113.488;2022-08-02T11:20:19;92248.50;;;30.43
60242;BMP280;46103;52.076;113.488;2022-08-02T11:23:39;92252.88;;;30.14
60242;BMP280;46103;52.076;113.488;2022-08-02T11:26:47;92271.88;;;29.95
60242;BMP280;46103;52.076;113.488;2022-08-02T11:29:51;92273.38;;;29.63
60242;BMP280;46103;52.076;113.488;2022-08-02T11:32:56;92267.13;;;29.47
60242;BMP280;46103;52.076;113.488;2022-08-02T11:36:05;92258.81;;;29.18
60242;BMP280;46103;52.076;113.488;2022-08-02T11:39:11;92268.59;;;29.05
60242;BMP280;46103;52.076;113.488;2022-08-02T11:42:17;92272.78;;;28.86
60242;BMP280;46103;52.076;113.488;2022-08-02T11:45:24;92279.75;;;28.46
60242;BMP280;46103;52.076;113.488;2022-08-02T11:48:37;92300.69;;;28.37
60242;BMP280;46103;52.076;113.488;2022-08-02T11:51:56;92266.31;;;28.00
60242;BMP280;46103;52.076;113.488;2022-08-02T11:55:03;92296.34;;;28.04
60242;BMP280;46103;52.076;113.488;2022-08-02T11:58:09;92304.69;;;27.90
60242;BMP280;46103;52.076;113.488;2022-08-02T12:01:13;92307.38;;;27.69
60242;BMP280;46103;52.076;113.488;2022-08-02T12:04:19;92303.13;;;27.56
60242;BMP280;46103;52.076;113.488;2022-08-02T12:07:27;92309.41;;;27.53
60242;BMP280;46103;52.076;113.488;2022-08-02T12:10:46;92333.03;;;27.43
60242;BMP280;46103;52.076;113.488;2022-08-02T12:13:50;92334.44;;;27.42
60242;BMP280;46103;52.076;113.488;2022-08-02T12:16:58;92325.91;;;27.18
60242;BMP280;46103;52.076;113.488;2022-08-02T12:20:34;92362.25;;;27.30
60242;BMP280;46103;52.076;113.488;2022-08-02T12:23:47;92368.53;;;27.29
60242;BMP280;46103;52.076;113.488;2022-08-02T12:27:02;92357.97;;;27.15
60242;BMP280;46103;52.076;113.488;2022-08-02T12:30:17;92355.00;;;26.99
60242;BMP280;46103;52.076;113.488;2022-08-02T12:33:45;92338.88;;;26.89
60242;BMP280;46103;52.076;113.488;2022-08-02T12:37:07;92334.69;;;26.88
60242;BMP280;46103;52.076;113.488;2022-08-02T12:40:25;92343.63;;;26.74
60242;BMP280;46103;52.076;113.488;2022-08-02T12:43:32;92351.81;;;26.58
60242;BMP280;46103;52.076;113.488;2022-08-02T12:46:35;92341.09;;;26.34
60242;BMP280;46103;52.076;113.488;2022-08-02T12:50:10;92353.94;;;26.03
60242;BMP280;46103;52.076;113.488;2022-08-02T12:53:16;92362.00;;;25.81
60242;BMP280;46103;52.076;113.488;2022-08-02T12:56:32;92376.91;;;25.54
60242;BMP280;46103;52.076;113.488;2022-08-02T12:59:37;92392.66;;;25.39
60242;BMP280;46103;52.076;113.488;2022-08-02T13:02:41;92396.34;;;25.12
60242;BMP280;46103;52.076;113.488;2022-08-02T13:05:49;92408.47;;;24.88
60242;BMP280;46103;52.076;113.488;2022-08-02T13:09:01;92411.50;;;24.65
60242;BMP280;46103;52.076;113.488;2022-08-02T13:12:06;92392.44;;;24.51
60242;BMP280;46103;52.076;113.488;2022-08-02T13:15:11;92380.72;;;24.54
60242;BMP280;46103;52.076;113.488;2022-08-02T13:18:35;92367.03;;;24.65
60242;BMP280;46103;52.076;113.488;2022-08-02T13:21:39;92362.31;;;24.73
60242;BMP280;46103;52.076;113.488;2022-08-02T13:25:03;92331.72;;;24.73
60242;BMP280;46103;52.076;113.488;2022-08-02T13:28:08;92289.34;;;24.75
60242;BMP280;46103;52.076;113.488;2022-08-02T13:31:11;92247.31;;;24.54
60242;BMP280;46103;52.076;113.488;2022-08-02T13:34:36;92252.28;;;24.24
60242;BMP280;46103;52.076;113.488;2022-08-02T13:37:40;92256.22;;;24.11
60242;BMP280;46103;52.076;113.488;2022-08-02T13:40:44;92251.28;;;24.07
60242;BMP280;46103;52.076;113.488;2022-08-02T13:44:07;92240.72;;;24.00
60242;BMP280;46103;52.076;113.488;2022-08-02T13:47:12;92234.06;;;23.79
60242;BMP280;46103;52.076;113.488;2022-08-02T13:50:28;92261.13;;;23.80
60242;BMP280;46103;52.076;113.488;2022-08-02T13:53:31;92255.47;;;23.74
60242;BMP280;46103;52.076;113.488;2022-08-02T13:56:36;92263.28;;;23.82
60242;BMP280;46103;52.076;113.488;2022-08-02T13:59:39;92272.31;;;23.84
60242;BMP280;46103;52.076;113.488;2022-08-02T14:03:00;92285.69;;;23.92
60242;BMP280;46103;52.076;113.488;2022-08-02T14:06:03;92303.94;;;24.01
60242;BMP280;46103;52.076;113.488;2022-08-02T14:09:09;92295.66;;;24.05
60242;BMP280;46103;52.076;113.488;2022-08-02T14:12:18;92292.13;;;24.01
60242;BMP280;46103;52.076;113.488;2022-08-02T14:15:23;92307.00;;;24.15
60242;BMP280;46103;52.076;113.488;2022-08-02T14:18:31;92296.56;;;24.16
60242;BMP280;46103;52.076;113.488;2022-08-02T14:21:35;92289.19;;;24.26
60242;BMP280;46103;52.076;113.488;2022-08-02T14:24:49;92280.84;;;24.26
60242;BMP280;46103;52.076;113.488;2022-08-02T14:27:52;92256.44;;;24.23
60242;BMP280;46103;52.076;113.488;2022-08-02T14:30:56;92241.66;;;24.12
60242;BMP280;46103;52.076;113.488;2022-08-02T14:33:59;92236.03;;;24.08
60242;BMP280;46103;52.076;113.488;2022-08-02T14:37:04;92226.84;;;24.00
60242;BMP280;46103;52.076;113.488;2022-08-02T14:40:07;92244.56;;;24.20
60242;BMP280;46103;52.076;113.488;2022-08-02T14:43:31;92239.22;;;24.31
60242;BMP280;46103;52.076;113.488;2022-08-02T14:46:54;92256.69;;;24.35
60242;BMP280;46103;52.076;113.488;2022-08-02T14:49:58;92246.91;;;24.32
60242;BMP280;46103;52.076;113.488;2022-08-02T14:53:02;92262.28;;;24.37
60242;BMP280;46103;52.076;113.488;2022-08-02T14:56:05;92259.28;;;24.27
60242;BMP280;46103;52.076;113.488;2022-08-02T14:59:09;92295.44;;;24.29
60242;BMP280;46103;52.076;113.488;2022-08-02T15:02:13;92279.97;;;24.18
60242;BMP280;46103;52.076;113.488;2022-08-02T15:05:17;92295.44;;;24.29
60242;BMP280;46103;52.076;113.488;2022-08-02T15:08:21;92298.22;;;24.29
60242;BMP280;46103;52.076;113.488;2022-08-02T15:11:25;92304.53;;;24.32
60242;BMP280;46103;52.076;113.488;2022-08-02T15:14:29;92324.66;;;24.30
60242;BMP280;46103;52.076;113.488;2022-08-02T15:17:33;92340.47;;;24.23
60242;BMP280;46103;52.076;113.488;2022-08-02T15:20:37;92345.88;;;23.83
60242;BMP280;46103;52.076;113.488;2022-08-02T15:23:43;92352.13;;;23.52
60242;BMP280;46103;52.076;113.488;2022-08-02T15:26:47;92353.03;;;23.33
60242;BMP280;46103;52.076;113.488;2022-08-02T15:29:52;92345.19;;;23.23
60242;BMP280;46103;52.076;113.488;2022-08-02T15:33:03;92357.63;;;23.22
60242;BMP280;46103;52.076;113.488;2022-08-02T15:36:07;92378.41;;;23.21
60242;BMP280;46103;52.076;113.488;2022-08-02T15:39:11;92399.47;;;23.32
60242;BMP280;46103;52.076;113.488;2022-08-02T15:42:15;92385.31;;;23.48
60242;BMP280;46103;52.076;113.488;2022-08-02T15:45:21;92390.19;;;23.49
60242;BMP280;46103;52.076;113.488;2022-08-02T15:48:24;92401.69;;;23.66
60242;BMP280;46103;52.076;113.488;2022-08-02T15:51:28;92386.53;;;23.69
60242;BMP280;46103;52.076;113.488;2022-08-02T15:54:32;92370.41;;;23.63
60242;BMP280;46103;52.076;113.488;2022-08-02T15:57:36;92357.47;;;23.74
60242;BMP280;46103;52.076;113.488;2022-08-02T16:00:39;92351.44;;;23.83
60242;BMP280;46103;52.076;113.488;2022-08-02T16:03:43;92364.75;;;23.89
60242;BMP280;46103;52.076;113.488;2022-08-02T16:06:47;92385.34;;;23.80
60242;BMP280;46103;52.076;113.488;2022-08-02T16:09:51;92378.91;;;23.71
60242;BMP280;46103;52.076;113.488;2022-08-02T16:12:55;92369.22;;;23.72
60242;BMP280;46103;52.076;113.488;2022-08-02T16:16:23;92379.63;;;23.72
60242;BMP280;46103;52.076;113.488;2022-08-02T16:19:27;92383.13;;;23.72
60242;BMP280;46103;52.076;113.488;2022-08-02T16:22:51;92392.16;;;23.73
60242;BMP280;46103;52.076;113.488;2022-08-02T16:25:54;92386.34;;;23.92
60242;BMP280;46103;52.076;113.488;2022-08-02T16:29:00;92368.38;;;23.96
60242;BMP280;46103;52.076;113.488;2022-08-02T16:32:04;92366.41;;;24.00
60242;BMP280;46103;52.076;113.488;2022-08-02T16:35:09;92335.09;;;23.98
60242;BMP280;46103;52.076;113.488;2022-08-02T16:38:12;92300.25;;;23.90
60242;BMP280;46103;52.076;113.488;2022-08-02T16:41:16;92293.84;;;23.84
60242;BMP280;46103;52.076;113.488;2022-08-02T16:44:20;92276.19;;;23.69
60242;BMP280;46103;52.076;113.488;2022-08-02T16:47:31;92301.25;;;23.73
60242;BMP280;46103;52.076;113.488;2022-08-02T16:50:46;92306.72;;;23.69
60242;BMP280;46103;52.076;113.488;2022-08-02T16:53:52;92303.84;;;23.65
60242;BMP280;46103;52.076;113.488;2022-08-02T16:57:02;92310.81;;;23.66
60242;BMP280;46103;52.076;113.488;2022-08-02T17:00:08;92299.50;;;23.56
60242;BMP280;46103;52.076;113.488;2022-08-02T17:03:12;92287.13;;;23.63
60242;BMP280;46103;52.076;113.488;2022-08-02T17:06:17;92286.41;;;23.61
60242;BMP280;46103;52.076;113.488;2022-08-02T17:09:24;92275.94;;;23.59
60242;BMP280;46103;52.076;113.488;2022-08-02T17:12:48;92261.78;;;23.45
60242;BMP280;46103;52.076;113.488;2022-08-02T17:15:53;92263.31;;;23.52
60242;BMP280;46103;52.076;113.488;2022-08-02T17:19:17;92238.34;;;23.52
60242;BMP280;46103;52.076;113.488;2022-08-02T17:22:20;92222.28;;;23.46
60242;BMP280;46103;52.076;113.488;2022-08-02T17:25:27;92231.22;;;23.43
60242;BMP280;46103;52.076;113.488;2022-08-02T17:28:34;92242.91;;;23.39
60242;BMP280;46103;52.076;113.488;2022-08-02T17:31:58;92244.03;;;23.28
60242;BMP280;46103;52.076;113.488;2022-08-02T17:35:14;92246.91;;;23.32